Time;durP1;ratioP1;P1;durP2;ratioP2;P2;SDS_P1;SDS_P2;PMS_P1;PMS_P2;Temp;Humidity;BMP_temperature;BMP_pressure;BME280_temperature;BME280_humidity;BME280_pressure;Samples;Min_cycle;Max_cycle;Signal;HPM_P1;HPM_P2
2022/07/28 00:02:22;;;;;;;4.05;1.60;;;;;;;;;;5066243;28;20501;-68
2022/07/28 00:05:08;;;;;;;5.35;1.80;;;;;;;;;;5063832;28;20032;-63
2022/07/28 00:07:53;;;;;;;4.70;1.63;;;;;;;;;;5062327;28;20104;-63
2022/07/28 00:10:39;;;;;;;6.00;1.60;;;;;;;;;;5069309;28;20086;-62
2022/07/28 00:13:25;;;;;;;4.43;1.50;;;;;;;;;;5069300;28;20082;-63
2022/07/28 00:16:10;;;;;;;3.72;1.30;;;;;;;;;;5065822;28;20029;-63
2022/07/28 00:18:56;;;;;;;2.28;1.42;;;;;;;;;;5065574;28;20016;-63
2022/07/28 00:21:41;;;;;;;3.85;1.50;;;;;;;;;;5067223;28;20025;-61
2022/07/28 00:24:27;;;;;;;3.55;1.70;;;;;;;;;;5066641;28;20036;-64
2022/07/28 00:27:13;;;;;;;3.90;1.70;;;;;;;;;;5066052;28;20040;-63
2022/07/28 00:29:59;;;;;;;7.35;1.70;;;;;;;;;;5070720;28;20112;-63
2022/07/28 00:32:45;;;;;;;4.53;2.00;;;;;;;;;;5061808;28;20021;-63
2022/07/28 00:35:31;;;;;;;6.10;1.77;;;;;;;;;;5069159;28;20017;-62
2022/07/28 00:38:16;;;;;;;5.57;1.92;;;;;;;;;;5075852;28;20073;-65
2022/07/28 00:41:11;;;;;;;6.40;1.83;;;;;;;;;;5070477;28;20103;-63
2022/07/28 00:43:56;;;;;;;4.10;1.85;;;;;;;;;;5069177;28;20051;-60
2022/07/28 00:46:42;;;;;;;2.85;1.50;;;;;;;;;;5079840;28;20024;-61
2022/07/28 00:49:27;;;;;;;4.43;2.10;;;;;;;;;;5069539;28;20048;-61
2022/07/28 00:52:15;;;;;;;5.55;1.60;;;;;;;;;;5065485;28;20040;-61
2022/07/28 00:55:02;;;;;;;4.70;1.77;;;;;;;;;;5072828;28;20031;-59
2022/07/28 00:57:47;;;;;;;2.72;1.55;;;;;;;;;;5074831;28;20029;-67
2022/07/28 01:00:33;;;;;;;2.33;1.48;;;;;;;;;;5058474;28;20028;-62
2022/07/28 01:03:19;;;;;;;8.23;1.98;;;;;;;;;;5070625;28;20025;-61
2022/07/28 01:06:11;;;;;;;3.83;1.90;;;;;;;;;;5070218;28;20013;-59
2022/07/28 01:09:02;;;;;;;5.97;1.50;;;;;;;;;;5074566;28;20490;-61
2022/07/28 01:11:59;;;;;;;2.67;1.67;;;;;;;;;;5070751;28;20031;-64
2022/07/28 01:14:55;;;;;;;6.30;2.10;;;;;;;;;;5060307;28;20017;-63
2022/07/28 01:18:07;;;;;;;4.15;1.73;;;;;;;;;;5062405;28;20428;-54
2022/07/28 01:20:55;;;;;;;4.20;1.92;;;;;;;;;;5063047;28;20115;-64
2022/07/28 01:23:57;;;;;;;3.90;1.55;;;;;;;;;;5079947;28;20040;-63
2022/07/28 01:26:55;;;;;;;3.13;1.52;;;;;;;;;;5070111;28;20025;-65
2022/07/28 01:29:53;;;;;;;4.30;1.67;;;;;;;;;;5066743;28;20039;-62
2022/07/28 01:32:50;;;;;;;5.60;1.85;;;;;;;;;;5064902;28;20082;-65
2022/07/28 01:35:40;;;;;;;4.65;1.70;;;;;;;;;;5072967;28;20032;-61
2022/07/28 01:38:27;;;;;;;3.60;1.80;;;;;;;;;;5069284;28;20024;-56
2022/07/28 01:41:18;;;;;;;3.75;1.75;;;;;;;;;;5071338;28;20017;-58
2022/07/28 01:44:09;;;;;;;5.85;2.15;;;;;;;;;;5068819;28;20029;-61
2022/07/28 01:46:56;;;;;;;4.70;2.47;;;;;;;;;;5064362;28;20024;-59
2022/07/28 01:49:44;;;;;;;4.00;1.60;;;;;;;;;;5066004;28;20041;-58
2022/07/28 01:52:30;;;;;;;3.45;1.90;;;;;;;;;;5071124;28;20161;-68
2022/07/28 01:55:17;;;;;;;6.93;2.10;;;;;;;;;;5077655;28;20028;-69
2022/07/28 01:58:03;;;;;;;3.35;1.90;;;;;;;;;;5068232;28;20099;-69
2022/07/28 02:00:49;;;;;;;3.05;1.40;;;;;;;;;;5068976;28;20024;-68
2022/07/28 02:03:36;;;;;;;5.68;1.77;;;;;;;;;;5071894;28;20020;-69
2022/07/28 02:06:22;;;;;;;4.93;1.80;;;;;;;;;;5068849;28;20024;-69
2022/07/28 02:09:08;;;;;;;5.30;1.67;;;;;;;;;;5064900;28;20539;-69
2022/07/28 02:11:54;;;;;;;3.95;2.65;;;;;;;;;;5072841;28;20032;-64
2022/07/28 02:14:41;;;;;;;4.63;1.75;;;;;;;;;;5061589;28;20060;-62
2022/07/28 02:17:29;;;;;;;6.85;1.90;;;;;;;;;;5069558;28;20032;-61
2022/07/28 02:20:16;;;;;;;2.85;1.77;;;;;;;;;;5069271;28;20587;-61
2022/07/28 02:23:03;;;;;;;2.58;1.60;;;;;;;;;;5071551;28;20040;-62
2022/07/28 02:25:50;;;;;;;4.53;2.15;;;;;;;;;;5057887;28;20079;-60
2022/07/28 02:28:36;;;;;;;3.72;1.85;;;;;;;;;;5069934;28;20025;-63
2022/07/28 02:31:24;;;;;;;4.20;1.60;;;;;;;;;;5061128;28;20033;-69
2022/07/28 02:34:11;;;;;;;4.22;1.55;;;;;;;;;;5074001;28;20039;-64
2022/07/28 02:36:58;;;;;;;5.65;2.03;;;;;;;;;;5062985;28;20035;-64
2022/07/28 02:39:47;;;;;;;4.35;1.85;;;;;;;;;;5067170;28;20077;-64
2022/07/28 02:42:34;;;;;;;5.13;2.28;;;;;;;;;;5068099;28;20113;-64
2022/07/28 02:45:20;;;;;;;5.90;1.90;;;;;;;;;;5062799;28;20094;-63
2022/07/28 02:48:09;;;;;;;5.32;2.00;;;;;;;;;;5060996;28;20514;-69
2022/07/28 02:50:56;;;;;;;3.85;1.90;;;;;;;;;;5065374;28;20059;-60
2022/07/28 02:53:42;;;;;;;5.63;1.92;;;;;;;;;;5061076;28;20550;-60
2022/07/28 02:56:27;;;;;;;5.40;2.13;;;;;;;;;;5067078;28;20021;-62
2022/07/28 02:59:13;;;;;;;3.42;1.92;;;;;;;;;;5066368;28;20024;-62
2022/07/28 03:01:59;;;;;;;4.57;1.98;;;;;;;;;;5064985;28;20111;-62
2022/07/28 03:04:57;;;;;;;4.57;2.08;;;;;;;;;;5069735;28;20506;-62
2022/07/28 03:07:43;;;;;;;4.20;1.85;;;;;;;;;;5069808;28;20689;-69
2022/07/28 03:10:29;;;;;;;3.03;1.95;;;;;;;;;;5077238;28;20429;-69
2022/07/28 03:13:14;;;;;;;3.08;1.80;;;;;;;;;;5069387;28;20021;-69
2022/07/28 03:16:01;;;;;;;4.05;1.85;;;;;;;;;;5073113;28;20078;-68
2022/07/28 03:18:46;;;;;;;5.70;2.67;;;;;;;;;;5072748;28;20195;-69
2022/07/28 03:21:32;;;;;;;4.28;1.77;;;;;;;;;;5068210;28;20090;-69
2022/07/28 03:24:19;;;;;;;4.38;2.05;;;;;;;;;;5056367;28;20020;-59
2022/07/28 03:27:14;;;;;;;3.78;1.98;;;;;;;;;;5067055;28;20126;-58
2022/07/28 03:30:02;;;;;;;5.28;2.00;;;;;;;;;;5059274;28;20035;-59
2022/07/28 03:32:53;;;;;;;3.10;1.90;;;;;;;;;;5066934;28;20605;-59
2022/07/28 03:35:43;;;;;;;5.63;1.90;;;;;;;;;;5063732;28;20028;-58
2022/07/28 03:38:32;;;;;;;5.22;2.13;;;;;;;;;;5064199;28;20020;-59
2022/07/28 03:41:20;;;;;;;4.28;2.13;;;;;;;;;;5068053;28;20017;-58
2022/07/28 03:44:06;;;;;;;3.83;2.13;;;;;;;;;;5067614;28;20070;-61
2022/07/28 03:46:51;;;;;;;4.85;1.80;;;;;;;;;;5062557;28;20027;-61
2022/07/28 03:49:38;;;;;;;2.47;1.80;;;;;;;;;;5058727;28;20081;-59
2022/07/28 03:52:23;;;;;;;4.50;2.55;;;;;;;;;;5072594;28;20479;-58
2022/07/28 03:55:10;;;;;;;9.02;2.63;;;;;;;;;;5065995;28;20158;-58
2022/07/28 03:57:56;;;;;;;3.75;2.17;;;;;;;;;;5063991;28;20041;-59
2022/07/28 04:00:42;;;;;;;6.07;2.20;;;;;;;;;;5073044;28;20448;-62
2022/07/28 04:03:29;;;;;;;4.28;2.13;;;;;;;;;;5057246;28;20048;-72
2022/07/28 04:06:14;;;;;;;3.55;1.92;;;;;;;;;;5064737;28;20074;-63
2022/07/28 04:09:00;;;;;;;6.38;2.25;;;;;;;;;;5065358;28;20020;-65
2022/07/28 04:11:46;;;;;;;5.40;1.98;;;;;;;;;;5066570;28;20029;-64
2022/07/28 04:14:31;;;;;;;5.07;2.22;;;;;;;;;;5063933;28;20124;-64
2022/07/28 04:17:17;;;;;;;4.47;2.17;;;;;;;;;;5064619;28;20388;-64
2022/07/28 04:20:02;;;;;;;5.80;2.17;;;;;;;;;;5070808;28;20023;-62
2022/07/28 04:22:48;;;;;;;6.43;2.30;;;;;;;;;;5067373;28;20020;-55
2022/07/28 04:25:34;;;;;;;6.00;2.58;;;;;;;;;;5066125;28;20074;-56
2022/07/28 04:28:19;;;;;;;8.45;2.42;;;;;;;;;;5073400;28;20028;-57
2022/07/28 04:31:05;;;;;;;4.82;2.00;;;;;;;;;;5072859;28;20819;-55
2022/07/28 04:33:51;;;;;;;3.70;2.08;;;;;;;;;;5072284;28;20024;-53
2022/07/28 04:36:42;;;;;;;6.78;2.10;;;;;;;;;;5077274;28;20403;-56
2022/07/28 04:39:27;;;;;;;8.75;2.30;;;;;;;;;;5069211;28;20427;-60
2022/07/28 04:42:13;;;;;;;6.75;2.75;;;;;;;;;;5082886;28;20048;-62
2022/07/28 04:44:58;;;;;;;6.97;2.75;;;;;;;;;;5073836;28;20402;-59
2022/07/28 04:47:44;;;;;;;4.72;2.03;;;;;;;;;;5069948;28;20028;-60
2022/07/28 04:50:30;;;;;;;7.65;2.13;;;;;;;;;;5072671;28;20049;-59
2022/07/28 04:53:17;;;;;;;3.28;2.00;;;;;;;;;;5081710;28;20107;-59
2022/07/28 04:56:03;;;;;;;5.72;2.35;;;;;;;;;;5069718;28;20028;-69
2022/07/28 04:58:48;;;;;;;4.32;2.15;;;;;;;;;;5064619;28;20130;-69
2022/07/28 05:01:37;;;;;;;5.43;2.72;;;;;;;;;;5066060;28;20582;-61
2022/07/28 05:04:23;;;;;;;6.43;2.60;;;;;;;;;;5067715;28;20031;-62
2022/07/28 05:07:10;;;;;;;4.65;2.45;;;;;;;;;;5077379;28;20094;-63
2022/07/28 05:09:55;;;;;;;6.55;2.60;;;;;;;;;;5088413;28;20081;-62
2022/07/28 05:12:41;;;;;;;4.07;1.92;;;;;;;;;;5077645;28;20099;-63
2022/07/28 05:15:27;;;;;;;7.28;2.25;;;;;;;;;;5072388;28;20036;-70
2022/07/28 05:18:12;;;;;;;5.43;2.35;;;;;;;;;;5067824;28;20442;-64
2022/07/28 05:20:58;;;;;;;3.70;1.98;;;;;;;;;;5066792;28;20339;-62
2022/07/28 05:23:43;;;;;;;4.95;2.42;;;;;;;;;;5069957;28;20042;-64
2022/07/28 05:26:31;;;;;;;3.63;2.13;;;;;;;;;;5066877;28;20033;-63
2022/07/28 05:29:16;;;;;;;5.75;2.15;;;;;;;;;;5066027;28;20456;-62
2022/07/28 05:32:02;;;;;;;7.80;2.33;;;;;;;;;;5062645;28;20040;-63
2022/07/28 05:34:47;;;;;;;6.13;2.58;;;;;;;;;;5070098;28;20021;-69
2022/07/28 05:37:34;;;;;;;4.93;1.85;;;;;;;;;;5071458;28;20427;-59
2022/07/28 05:40:20;;;;;;;4.85;1.70;;;;;;;;;;5068073;28;20023;-59
2022/07/28 05:43:05;;;;;;;4.43;2.08;;;;;;;;;;5071600;28;20086;-59
2022/07/28 05:45:51;;;;;;;4.18;2.00;;;;;;;;;;5064281;28;20537;-61
2022/07/28 05:48:37;;;;;;;7.22;2.20;;;;;;;;;;5071213;28;20036;-61
2022/07/28 05:51:22;;;;;;;6.55;2.10;;;;;;;;;;5060809;28;20037;-65
2022/07/28 05:54:08;;;;;;;4.40;1.95;;;;;;;;;;5075522;28;20020;-68
2022/07/28 05:56:53;;;;;;;4.93;1.98;;;;;;;;;;5051135;28;20105;-63
2022/07/28 05:59:39;;;;;;;8.30;2.83;;;;;;;;;;5065632;28;20369;-62
2022/07/28 06:02:24;;;;;;;6.30;2.45;;;;;;;;;;5064302;28;20021;-61
2022/07/28 06:05:10;;;;;;;8.88;2.78;;;;;;;;;;5077215;28;20028;-62
2022/07/28 06:07:56;;;;;;;6.38;2.85;;;;;;;;;;5073174;28;20511;-62
2022/07/28 06:11:01;;;;;;;4.80;2.00;;;;;;;;;;5085215;28;20036;-68
2022/07/28 06:13:47;;;;;;;6.68;2.47;;;;;;;;;;5066493;28;20104;-59
2022/07/28 06:16:32;;;;;;;6.15;2.28;;;;;;;;;;5075974;28;20028;-58
2022/07/28 06:19:18;;;;;;;6.95;2.35;;;;;;;;;;5071777;28;20024;-58
2022/07/28 06:22:05;;;;;;;7.07;2.40;;;;;;;;;;5063152;28;20043;-59
2022/07/28 06:24:50;;;;;;;7.43;3.00;;;;;;;;;;5062363;28;20088;-59
2022/07/28 06:27:36;;;;;;;5.93;2.70;;;;;;;;;;5068685;28;20063;-59
2022/07/28 06:30:22;;;;;;;6.75;2.40;;;;;;;;;;5058211;28;20029;-69
2022/07/28 06:33:08;;;;;;;5.07;2.80;;;;;;;;;;5059826;28;20030;-69
2022/07/28 06:35:53;;;;;;;6.63;2.75;;;;;;;;;;5059114;28;20123;-69
2022/07/28 06:38:39;;;;;;;7.97;2.83;;;;;;;;;;5071249;28;20063;-70
2022/07/28 06:41:24;;;;;;;5.68;2.58;;;;;;;;;;5061638;28;20021;-69
2022/07/28 06:44:10;;;;;;;5.07;2.80;;;;;;;;;;5071232;28;20020;-70
2022/07/28 06:46:57;;;;;;;8.18;3.10;;;;;;;;;;5058729;28;20021;-69
2022/07/28 06:49:42;;;;;;;8.65;2.80;;;;;;;;;;5060847;28;20480;-69
2022/07/28 06:52:28;;;;;;;11.15;3.55;;;;;;;;;;5062877;28;20036;-68
2022/07/28 06:55:15;;;;;;;8.45;2.90;;;;;;;;;;5052403;28;20024;-69
2022/07/28 06:58:00;;;;;;;8.52;3.10;;;;;;;;;;5059681;28;20035;-68
2022/07/28 07:00:46;;;;;;;11.15;3.40;;;;;;;;;;5060425;28;20031;-69
2022/07/28 07:03:32;;;;;;;9.15;2.97;;;;;;;;;;5055529;28;20021;-69
2022/07/28 07:06:17;;;;;;;6.45;2.83;;;;;;;;;;5070476;28;20038;-62
2022/07/28 07:09:03;;;;;;;9.93;3.40;;;;;;;;;;5053669;28;20029;-62
2022/07/28 07:11:48;;;;;;;7.80;2.92;;;;;;;;;;5079077;28;20019;-63
2022/07/28 07:14:34;;;;;;;11.10;3.78;;;;;;;;;;5076285;28;20017;-62
2022/07/28 07:17:20;;;;;;;4.78;2.97;;;;;;;;;;5067973;28;20029;-62
2022/07/28 07:20:05;;;;;;;8.77;3.15;;;;;;;;;;5063529;28;20479;-62
2022/07/28 07:22:51;;;;;;;7.28;3.22;;;;;;;;;;5055827;28;20012;-63
2022/07/28 07:25:37;;;;;;;4.18;3.00;;;;;;;;;;5059120;28;20090;-59
2022/07/28 07:28:22;;;;;;;6.80;3.60;;;;;;;;;;5071194;28;20078;-68
2022/07/28 07:31:08;;;;;;;6.57;3.50;;;;;;;;;;5056162;28;20037;-69
2022/07/28 07:33:53;;;;;;;7.53;3.45;;;;;;;;;;5056461;28;20032;-68
2022/07/28 07:36:39;;;;;;;6.38;3.65;;;;;;;;;;5054375;28;20020;-69
2022/07/28 07:39:24;;;;;;;6.80;3.78;;;;;;;;;;5066077;28;20028;-69
2022/07/28 07:42:10;;;;;;;8.73;3.92;;;;;;;;;;5056305;28;20017;-60
2022/07/28 07:44:55;;;;;;;6.28;3.75;;;;;;;;;;5063979;28;20053;-68
2022/07/28 07:47:41;;;;;;;7.50;3.65;;;;;;;;;;5063190;28;20023;-68
2022/07/28 07:50:27;;;;;;;8.10;3.40;;;;;;;;;;5060985;28;20119;-69
2022/07/28 07:53:12;;;;;;;10.18;2.92;;;;;;;;;;5068057;28;20025;-69
2022/07/28 07:55:58;;;;;;;6.97;4.03;;;;;;;;;;5051551;28;20036;-70
2022/07/28 07:58:43;;;;;;;6.45;3.58;;;;;;;;;;5063273;28;20431;-70
2022/07/28 08:01:29;;;;;;;7.53;4.22;;;;;;;;;;5065786;28;20027;-63
2022/07/28 08:04:15;;;;;;;6.47;3.53;;;;;;;;;;5059190;28;20159;-63
2022/07/28 08:07:01;;;;;;;8.88;3.75;;;;;;;;;;5066979;28;20112;-69
2022/07/28 08:09:46;;;;;;;7.15;4.25;;;;;;;;;;5071955;28;20020;-64
2022/07/28 08:12:32;;;;;;;7.63;4.43;;;;;;;;;;5062960;28;20090;-66
2022/07/28 08:15:17;;;;;;;9.65;4.43;;;;;;;;;;5072407;28;20038;-66
2022/07/28 08:18:03;;;;;;;8.02;4.30;;;;;;;;;;5064650;28;20516;-63
2022/07/28 08:20:49;;;;;;;9.35;4.78;;;;;;;;;;5062030;28;20060;-63
2022/07/28 08:23:34;;;;;;;9.57;4.05;;;;;;;;;;5065256;28;20487;-64
2022/07/28 08:26:21;;;;;;;12.68;4.15;;;;;;;;;;5056185;28;20460;-62
2022/07/28 08:29:08;;;;;;;6.70;3.42;;;;;;;;;;5062967;28;20044;-63
2022/07/28 08:31:53;;;;;;;6.05;3.67;;;;;;;;;;5060307;28;20485;-64
2022/07/28 08:34:39;;;;;;;7.30;3.97;;;;;;;;;;5052537;28;20051;-64
2022/07/28 08:37:24;;;;;;;9.45;3.85;;;;;;;;;;5065083;28;20071;-69
2022/07/28 08:40:13;;;;;;;7.47;3.92;;;;;;;;;;5062504;28;20035;-58
2022/07/28 08:43:08;;;;;;;6.25;3.85;;;;;;;;;;5072030;28;20479;-56
2022/07/28 08:45:53;;;;;;;9.15;3.88;;;;;;;;;;5062276;28;20040;-60
2022/07/28 08:48:39;;;;;;;7.70;3.88;;;;;;;;;;5051314;28;20479;-57
2022/07/28 08:51:26;;;;;;;5.32;3.50;;;;;;;;;;5061298;28;20125;-57
2022/07/28 08:54:14;;;;;;;8.10;4.32;;;;;;;;;;5065442;28;20016;-60
2022/07/28 08:57:01;;;;;;;8.65;4.15;;;;;;;;;;5061992;28;20052;-60
2022/07/28 08:59:48;;;;;;;8.10;4.28;;;;;;;;;;5075948;28;20511;-61
2022/07/28 09:02:36;;;;;;;7.70;3.50;;;;;;;;;;5078185;28;20066;-65
2022/07/28 09:05:22;;;;;;;8.17;4.30;;;;;;;;;;5075488;28;20098;-66
2022/07/28 09:08:09;;;;;;;8.93;4.40;;;;;;;;;;5067102;28;20031;-64
2022/07/28 09:10:55;;;;;;;9.35;4.05;;;;;;;;;;5075205;28;20475;-63
2022/07/28 09:13:40;;;;;;;7.22;4.15;;;;;;;;;;5072830;28;20039;-58
2022/07/28 09:16:26;;;;;;;6.65;4.32;;;;;;;;;;5075883;28;20046;-64
2022/07/28 09:19:11;;;;;;;6.13;3.63;;;;;;;;;;5064644;28;20028;-56
2022/07/28 09:21:57;;;;;;;6.63;4.32;;;;;;;;;;5063777;28;20025;-59
2022/07/28 09:24:45;;;;;;;7.32;5.07;;;;;;;;;;5057347;28;20103;-58
2022/07/28 09:27:43;;;;;;;5.23;4.00;;;;;;;;;;5063684;28;20028;-56
2022/07/28 09:30:33;;;;;;;6.57;4.25;;;;;;;;;;5068489;28;20112;-57
2022/07/28 09:33:18;;;;;;;;;;;;;;;;;;5062720;28;20016;-69
2022/07/28 09:36:11;;;;;;;7.32;4.43;;;;;;;;;;5083523;28;19976;-61
2022/07/28 09:38:57;;;;;;;6.22;4.00;;;;;;;;;;5058252;28;20067;-63
2022/07/28 09:41:45;;;;;;;6.03;4.18;;;;;;;;;;5061235;28;20070;-61
2022/07/28 09:44:30;;;;;;;7.60;4.50;;;;;;;;;;5071552;28;20099;-63
2022/07/28 09:47:26;;;;;;;7.43;4.47;;;;;;;;;;5068482;28;20025;-64
2022/07/28 09:50:19;;;;;;;7.97;4.38;;;;;;;;;;5061214;28;20496;-62
2022/07/28 09:53:26;;;;;;;6.97;4.57;;;;;;;;;;5076704;28;20024;-58
2022/07/28 09:56:12;;;;;;;9.27;3.75;;;;;;;;;;5055479;28;20031;-57
2022/07/28 09:58:58;;;;;;;9.18;4.90;;;;;;;;;;5069466;28;20408;-56
2022/07/28 10:02:11;;;;;;;9.00;4.03;;;;;;;;;;5066626;28;20082;-56
2022/07/28 10:04:59;;;;;;;9.25;4.43;;;;;;;;;;5064253;28;20024;-57
2022/07/28 10:07:48;;;;;;;5.90;3.83;;;;;;;;;;5053964;28;20033;-57
2022/07/28 10:10:34;;;;;;;6.88;4.30;;;;;;;;;;5064439;28;20101;-61
2022/07/28 10:13:21;;;;;;;7.15;4.63;;;;;;;;;;5074086;28;20103;-58
2022/07/28 10:16:10;;;;;;;7.13;3.75;;;;;;;;;;5058715;28;20399;-58
2022/07/28 10:18:58;;;;;;;5.97;4.00;;;;;;;;;;5062406;28;20047;-59
2022/07/28 10:21:44;;;;;;;31.83;20.48;;;;;;;;;;5071303;28;20096;-59
2022/07/28 10:24:30;;;;;;;9.88;6.07;;;;;;;;;;5064437;28;20029;-58
2022/07/28 10:27:16;;;;;;;11.10;6.82;;;;;;;;;;5084208;28;20481;-63
2022/07/28 10:30:03;;;;;;;39.20;22.60;;;;;;;;;;5062835;28;20483;-61
2022/07/28 10:32:49;;;;;;;151.20;104.45;;;;;;;;;;5073701;28;20020;-67
2022/07/28 10:35:35;;;;;;;33.97;21.92;;;;;;;;;;5055093;28;20028;-71
2022/07/28 10:38:24;;;;;;;8.40;4.13;;;;;;;;;;5058417;28;20025;-69
2022/07/28 10:41:11;;;;;;;42.20;27.35;;;;;;;;;;5062825;28;20021;-69
2022/07/28 10:43:56;;;;;;;67.78;44.53;;;;;;;;;;5067771;28;20043;-70
2022/07/28 10:46:42;;;;;;;5.95;4.03;;;;;;;;;;5072238;28;20013;-56
2022/07/28 10:49:28;;;;;;;11.95;5.93;;;;;;;;;;5055850;28;20063;-69
2022/07/28 10:52:16;;;;;;;17.92;11.98;;;;;;;;;;5065599;28;20445;-66
2022/07/28 10:55:08;;;;;;;14.05;9.52;;;;;;;;;;5067758;28;20028;-68
2022/07/28 10:58:08;;;;;;;11.10;7.03;;;;;;;;;;5062848;28;20029;-71
2022/07/28 11:00:54;;;;;;;11.48;6.05;;;;;;;;;;5057023;28;20058;-70
2022/07/28 11:03:42;;;;;;;7.47;3.47;;;;;;;;;;5056574;28;20021;-69
2022/07/28 11:06:29;;;;;;;5.43;3.73;;;;;;;;;;5061427;28;20157;-58
2022/07/28 11:09:15;;;;;;;9.35;4.85;;;;;;;;;;5071109;28;20526;-60
2022/07/28 11:12:01;;;;;;;6.93;4.22;;;;;;;;;;5072692;28;20037;-60
2022/07/28 11:14:47;;;;;;;6.65;3.90;;;;;;;;;;5070088;28;20111;-59
2022/07/28 11:17:32;;;;;;;14.02;7.55;;;;;;;;;;5068190;28;20383;-59
2022/07/28 11:20:18;;;;;;;7.25;3.55;;;;;;;;;;5059980;28;21489;-58
2022/07/28 11:23:22;;;;;;;14.40;7.57;;;;;;;;;;5075079;28;20043;-58
2022/07/28 11:26:20;;;;;;;11.75;7.18;;;;;;;;;;5059439;28;20020;-63
2022/07/28 11:29:06;;;;;;;6.72;3.63;;;;;;;;;;5056333;28;20077;-64
2022/07/28 11:31:55;;;;;;;5.50;3.70;;;;;;;;;;5066919;28;20460;-65
2022/07/28 11:34:59;;;;;;;8.38;4.43;;;;;;;;;;5061743;28;20028;-64
2022/07/28 11:38:00;;;;;;;6.50;3.65;;;;;;;;;;5067799;28;20058;-62
2022/07/28 11:40:53;;;;;;;8.95;3.95;;;;;;;;;;5067863;28;20522;-64
2022/07/28 11:43:39;;;;;;;7.53;3.30;;;;;;;;;;5056775;28;20480;-63
2022/07/28 11:46:25;;;;;;;8.63;3.58;;;;;;;;;;5059911;28;20080;-63
2022/07/28 11:49:15;;;;;;;6.47;4.00;;;;;;;;;;5070960;28;20071;-64
2022/07/28 11:52:11;;;;;;;6.10;4.18;;;;;;;;;;5065105;28;20043;-65
2022/07/28 11:54:57;;;;;;;7.75;4.13;;;;;;;;;;5056440;28;20475;-64
2022/07/28 11:57:44;;;;;;;9.05;3.70;;;;;;;;;;5059946;28;20115;-63
2022/07/28 12:00:29;;;;;;;6.35;3.00;;;;;;;;;;5057801;28;20043;-69
2022/07/28 12:03:31;;;;;;;8.32;3.88;;;;;;;;;;5079452;28;20478;-56
2022/07/28 12:06:17;;;;;;;8.27;3.45;;;;;;;;;;5065741;28;20032;-59
2022/07/28 12:09:04;;;;;;;9.63;3.95;;;;;;;;;;5069205;28;20427;-59
2022/07/28 12:11:52;;;;;;;6.13;3.78;;;;;;;;;;5076216;28;20032;-58
2022/07/28 12:14:39;;;;;;;7.68;3.45;;;;;;;;;;5077965;28;20042;-57
2022/07/28 12:17:33;;;;;;;4.15;3.20;;;;;;;;;;5073865;28;20284;-59
2022/07/28 12:20:19;;;;;;;5.85;3.33;;;;;;;;;;5061210;28;20122;-55
2022/07/28 12:23:06;;;;;;;6.43;3.05;;;;;;;;;;5076136;28;20030;-57
2022/07/28 12:25:51;;;;;;;6.03;3.38;;;;;;;;;;5060835;28;20016;-57
2022/07/28 12:28:37;;;;;;;4.22;3.00;;;;;;;;;;5057218;28;20025;-56
2022/07/28 12:31:28;;;;;;;4.47;3.08;;;;;;;;;;5070846;28;20507;-56
2022/07/28 12:34:14;;;;;;;6.13;3.10;;;;;;;;;;5059364;28;20515;-59
2022/07/28 12:37:01;;;;;;;7.30;3.40;;;;;;;;;;5059144;28;20044;-69
2022/07/28 12:39:49;;;;;;;6.95;3.28;;;;;;;;;;5061582;28;20389;-56
2022/07/28 12:42:35;;;;;;;7.65;3.05;;;;;;;;;;5061326;28;20033;-57
2022/07/28 12:45:21;;;;;;;4.85;2.97;;;;;;;;;;5075624;28;20032;-55
2022/07/28 12:48:07;;;;;;;5.25;3.10;;;;;;;;;;5053779;28;20112;-58
2022/07/28 12:50:53;;;;;;;7.38;3.35;;;;;;;;;;5063818;28;20425;-57
2022/07/28 12:53:50;;;;;;;6.45;3.13;;;;;;;;;;5059590;28;20103;-58
2022/07/28 12:56:52;;;;;;;5.15;2.90;;;;;;;;;;5057138;28;20021;-62
2022/07/28 12:59:38;;;;;;;4.70;3.20;;;;;;;;;;5066084;28;20502;-63
2022/07/28 13:02:36;;;;;;;5.80;3.17;;;;;;;;;;5056669;28;20021;-65
2022/07/28 13:05:25;;;;;;;5.10;2.72;;;;;;;;;;5061623;28;20114;-66
2022/07/28 13:08:11;;;;;;;6.97;3.53;;;;;;;;;;5068136;28;20053;-63
2022/07/28 13:10:57;;;;;;;4.60;2.80;;;;;;;;;;5069865;28;20043;-65
2022/07/28 13:13:48;;;;;;;5.22;2.83;;;;;;;;;;5075950;28;20073;-65
2022/07/28 13:16:35;;;;;;;4.88;3.13;;;;;;;;;;5067432;28;20078;-64
2022/07/28 13:19:21;;;;;;;7.05;3.17;;;;;;;;;;5062180;28;20033;-63
2022/07/28 13:22:06;;;;;;;4.38;2.97;;;;;;;;;;5070810;28;20033;-66
2022/07/28 13:24:52;;;;;;;7.15;3.20;;;;;;;;;;5073099;28;20032;-65
2022/07/28 13:27:37;;;;;;;8.13;3.40;;;;;;;;;;5060290;28;20487;-63
2022/07/28 13:30:23;;;;;;;4.15;3.10;;;;;;;;;;5064039;28;20091;-63
2022/07/28 13:33:09;;;;;;;6.72;3.13;;;;;;;;;;5063164;28;20079;-57
2022/07/28 13:35:55;;;;;;;3.55;2.78;;;;;;;;;;5064138;28;20050;-65
2022/07/28 13:38:40;;;;;;;4.85;3.30;;;;;;;;;;5058186;28;20384;-64
2022/07/28 13:41:26;;;;;;;5.70;3.10;;;;;;;;;;5076738;28;20024;-63
2022/07/28 13:44:11;;;;;;;7.18;3.22;;;;;;;;;;5071156;28;20021;-64
2022/07/28 13:46:58;;;;;;;4.88;3.25;;;;;;;;;;5072437;28;20037;-65
2022/07/28 13:49:43;;;;;;;4.85;3.20;;;;;;;;;;5057492;28;20059;-69
2022/07/28 13:52:29;;;;;;;6.38;3.42;;;;;;;;;;5059253;28;20056;-58
2022/07/28 13:55:14;;;;;;;5.63;3.38;;;;;;;;;;5060794;28;20476;-62
2022/07/28 13:58:00;;;;;;;6.95;3.42;;;;;;;;;;5058822;28;20491;-61
2022/07/28 14:00:46;;;;;;;6.40;3.13;;;;;;;;;;5059881;28;20016;-64
2022/07/28 14:03:31;;;;;;;5.55;3.00;;;;;;;;;;5059803;28;20036;-65
2022/07/28 14:06:17;;;;;;;5.75;3.30;;;;;;;;;;5057926;28;20459;-64
2022/07/28 14:09:03;;;;;;;6.13;3.35;;;;;;;;;;5073575;28;20032;-64
2022/07/28 14:11:49;;;;;;;6.30;3.40;;;;;;;;;;5072533;28;20510;-63
2022/07/28 14:14:34;;;;;;;9.80;4.25;;;;;;;;;;5071368;28;20475;-62
2022/07/28 14:17:21;;;;;;;4.38;2.72;;;;;;;;;;5077102;28;20028;-64
2022/07/28 14:20:07;;;;;;;7.45;3.78;;;;;;;;;;5075991;28;20043;-63
2022/07/28 14:22:53;;;;;;;4.10;2.90;;;;;;;;;;5067181;28;20029;-62
2022/07/28 14:25:38;;;;;;;5.55;2.92;;;;;;;;;;5062941;28;20219;-62
2022/07/28 14:28:24;;;;;;;4.82;3.63;;;;;;;;;;5061853;28;20058;-69
2022/07/28 14:31:10;;;;;;;6.85;4.15;;;;;;;;;;5068158;28;20033;-69
2022/07/28 14:33:55;;;;;;;6.53;3.20;;;;;;;;;;5060490;28;20033;-68
2022/07/28 14:36:41;;;;;;;6.78;3.85;;;;;;;;;;5062052;28;20098;-70
2022/07/28 14:39:26;;;;;;;5.88;3.50;;;;;;;;;;5072583;28;20487;-70
2022/07/28 14:42:12;;;;;;;6.20;3.33;;;;;;;;;;5063940;28;20074;-72
2022/07/28 14:44:58;;;;;;;4.72;3.20;;;;;;;;;;5064657;28;20399;-59
2022/07/28 14:47:43;;;;;;;9.45;3.33;;;;;;;;;;5064917;28;20025;-62
2022/07/28 14:50:29;;;;;;;5.72;3.13;;;;;;;;;;5059616;28;20459;-62
2022/07/28 14:53:16;;;;;;;10.45;3.45;;;;;;;;;;5060644;28;20033;-63
2022/07/28 14:56:01;;;;;;;4.35;3.25;;;;;;;;;;5066483;28;20032;-63
2022/07/28 14:58:47;;;;;;;6.85;2.97;;;;;;;;;;5059290;28;20387;-64
2022/07/28 15:01:32;;;;;;;4.50;3.13;;;;;;;;;;5058011;28;20146;-65
2022/07/28 15:04:18;;;;;;;4.95;3.15;;;;;;;;;;5063742;28;20024;-69
2022/07/28 15:07:04;;;;;;;5.38;3.40;;;;;;;;;;5051125;28;20075;-68
2022/07/28 15:09:50;;;;;;;6.38;3.50;;;;;;;;;;5075668;28;20060;-68
2022/07/28 15:12:36;;;;;;;7.18;3.42;;;;;;;;;;5072043;28;20037;-66
2022/07/28 15:15:25;;;;;;;6.32;2.92;;;;;;;;;;5067667;28;20634;-68
2022/07/28 15:18:10;;;;;;;4.60;3.33;;;;;;;;;;5067192;28;20024;-68
2022/07/28 15:20:56;;;;;;;5.30;2.65;;;;;;;;;;5053986;28;20384;-67
2022/07/28 15:23:42;;;;;;;4.68;3.17;;;;;;;;;;5078828;28;20480;-62
2022/07/28 15:26:27;;;;;;;5.85;3.05;;;;;;;;;;5051690;28;20079;-57
2022/07/28 15:29:13;;;;;;;3.70;2.88;;;;;;;;;;5067655;28;20051;-56
2022/07/28 15:32:00;;;;;;;4.85;2.70;;;;;;;;;;5064561;28;20036;-56
2022/07/28 15:34:46;;;;;;;7.32;3.30;;;;;;;;;;5069294;28;20026;-58
2022/07/28 15:37:32;;;;;;;3.90;3.17;;;;;;;;;;5056204;28;20044;-57
2022/07/28 15:40:17;;;;;;;4.55;2.88;;;;;;;;;;5064832;28;20431;-61
2022/07/28 15:43:03;;;;;;;6.07;3.00;;;;;;;;;;5068531;28;20024;-62
2022/07/28 15:45:48;;;;;;;4.60;2.80;;;;;;;;;;5063534;28;20016;-58
2022/07/28 15:48:38;;;;;;;8.52;3.40;;;;;;;;;;5054679;28;20021;-60
2022/07/28 15:51:24;;;;;;;6.47;2.92;;;;;;;;;;5057146;28;20519;-61
2022/07/28 15:54:10;;;;;;;5.28;3.22;;;;;;;;;;5070591;28;20024;-59
2022/07/28 15:56:55;;;;;;;6.63;3.17;;;;;;;;;;5059567;28;20033;-58
2022/07/28 15:59:41;;;;;;;4.95;3.03;;;;;;;;;;5068328;28;20029;-62
2022/07/28 16:02:26;;;;;;;5.10;3.05;;;;;;;;;;5068201;28;20051;-55
2022/07/28 16:05:12;;;;;;;5.88;2.92;;;;;;;;;;5056773;28;20089;-56
2022/07/28 16:07:59;;;;;;;5.70;3.28;;;;;;;;;;5065274;28;20033;-59
2022/07/28 16:10:45;;;;;;;5.88;3.00;;;;;;;;;;5079861;28;20506;-58
2022/07/28 16:13:31;;;;;;;7.22;2.70;;;;;;;;;;5072031;28;20016;-58
2022/07/28 16:16:17;;;;;;;6.28;2.90;;;;;;;;;;5059653;28;20094;-57
2022/07/28 16:19:02;;;;;;;5.15;3.00;;;;;;;;;;5071923;28;20047;-62
2022/07/28 16:21:48;;;;;;;8.27;3.13;;;;;;;;;;5064496;28;20039;-64
2022/07/28 16:24:34;;;;;;;9.13;3.45;;;;;;;;;;5076159;28;20024;-61
2022/07/28 16:27:19;;;;;;;9.45;3.28;;;;;;;;;;5067602;28;20449;-62
2022/07/28 16:30:05;;;;;;;5.63;3.50;;;;;;;;;;5069077;28;20439;-64
2022/07/28 16:32:51;;;;;;;6.65;2.78;;;;;;;;;;5062558;28;20479;-62
2022/07/28 16:35:37;;;;;;;5.57;3.30;;;;;;;;;;5068712;28;20029;-56
2022/07/28 16:38:22;;;;;;;7.15;3.45;;;;;;;;;;5073230;28;20043;-61
2022/07/28 16:41:10;;;;;;;5.60;3.55;;;;;;;;;;5065723;28;20066;-69
2022/07/28 16:43:55;;;;;;;6.00;3.05;;;;;;;;;;5067344;28;20083;-73